Current Conditions
Clear
Conditions



Pressure
30.22 (inHG) - 1023.42 (mb)
Visibility

10.0 (miles) - 16.1 (km)
Temperature
72  °F
Temperature
54  °F
Dewpoint
53  %
 Humidity
Wind Speed
0  mph
0  kts
0  km/h
0  m/s
Wind Direction
N
45°
E
90°
135°
S
180°
225°
W
270°
315°
Calm

Due North
Airport Data
KABQ
Albuquerque International Sunport
Metar :KABQ 141152Z 00000KT 10SM CLR 22/12 A3022 RMK AO2 SLP141 T02170117 10239 20217 58001
Sun 14th August 05:52 am
Raw Metar Info
Raw METAR is the most common format in the world for the transmission of observational weather data. It is highly standardized through the International Civil Aviation Organization (ICAO), which allows it to be understood throughout most of the world.
API Info
Data Provided by
https://www.checkwx.com/weather/KABQ

Aviation Weather providing METAR, TAF, AIRMET, SIGMET and OUTLOOK Weather Reports
© Info
CSS/SVG/PHP scripts were developed by weather34 for use in the weather34 template © 2015-2022

Guide Info provided by Metar-Wikipedia